sensor_id;sensor_type;location;lat;lon;timestamp;pressure;altitude;pressure_sealevel;temperature;humidity
60489;BME280;46331;49.252;8.904;2023-02-04T00:00:20;101045.63;;;7.70;100.00
60489;BME280;46331;49.252;8.904;2023-02-04T00:01:02;101044.34;;;7.66;100.00
60489;BME280;46331;49.252;8.904;2023-02-04T00:01:42;101044.91;;;7.77;100.00
60489;BME280;46331;49.252;8.904;2023-02-04T00:02:23;101049.81;;;7.80;100.00
60489;BME280;46331;49.252;8.904;2023-02-04T00:03:04;101049.63;;;7.81;100.00
60489;BME280;46331;49.252;8.904;2023-02-04T00:03:44;101045.97;;;7.82;100.00
60489;BME280;46331;49.252;8.904;2023-02-04T00:04:25;101045.72;;;7.77;100.00
60489;BME280;46331;49.252;8.904;2023-02-04T00:05:05;101042.34;;;7.68;100.00
60489;BME280;46331;49.252;8.904;2023-02-04T00:05:46;101042.81;;;7.72;100.00
60489;BME280;46331;49.252;8.904;2023-02-04T00:06:27;101042.44;;;7.75;100.00
60489;BME280;46331;49.252;8.904;2023-02-04T00:07:07;101035.75;;;7.79;100.00
60489;BME280;46331;49.252;8.904;2023-02-04T00:07:47;101044.97;;;7.83;100.00
60489;BME280;46331;49.252;8.904;2023-02-04T00:08:28;101036.69;;;7.72;100.00
60489;BME280;46331;49.252;8.904;2023-02-04T00:09:09;101035.75;;;7.79;100.00
60489;BME280;46331;49.252;8.904;2023-02-04T00:09:49;101039.06;;;7.81;100.00
60489;BME280;46331;49.252;8.904;2023-02-04T00:10:30;101042.50;;;7.82;100.00
60489;BME280;46331;49.252;8.904;2023-02-04T00:11:10;101048.41;;;7.84;100.00
60489;BME280;46331;49.252;8.904;2023-02-04T00:11:51;101050.56;;;7.74;100.00
60489;BME280;46331;49.252;8.904;2023-02-04T00:12:32;101051.44;;;7.81;100.00
60489;BME280;46331;49.252;8.904;2023-02-04T00:13:13;101045.59;;;7.85;100.00
60489;BME280;46331;49.252;8.904;2023-02-04T00:13:54;101048.78;;;7.81;100.00
60489;BME280;46331;49.252;8.904;2023-02-04T00:14:34;101048.59;;;7.82;100.00
60489;BME280;46331;49.252;8.904;2023-02-04T00:15:15;101053.19;;;7.74;100.00
60489;BME280;46331;49.252;8.904;2023-02-04T00:15:55;101043.81;;;7.71;100.00
60489;BME280;46331;49.252;8.904;2023-02-04T00:16:36;101050.09;;;7.70;100.00
60489;BME280;46331;49.252;8.904;2023-02-04T00:17:17;101050.44;;;7.67;100.00
60489;BME280;46331;49.252;8.904;2023-02-04T00:17:57;101047.56;;;7.62;100.00
60489;BME280;46331;49.252;8.904;2023-02-04T00:18:38;101044.91;;;7.62;100.00
60489;BME280;46331;49.252;8.904;2023-02-04T00:19:19;101046.06;;;7.74;100.00
60489;BME280;46331;49.252;8.904;2023-02-04T00:19:59;101046.88;;;7.75;100.00
60489;BME280;46331;49.252;8.904;2023-02-04T00:20:39;101044.06;;;7.76;100.00
60489;BME280;46331;49.252;8.904;2023-02-04T00:21:20;101047.06;;;7.73;100.00
60489;BME280;46331;49.252;8.904;2023-02-04T00:22:01;101050.44;;;7.67;100.00
60489;BME280;46331;49.252;8.904;2023-02-04T00:22:43;101056.75;;;7.66;100.00
60489;BME280;46331;49.252;8.904;2023-02-04T00:23:23;101053.09;;;7.67;100.00
60489;BME280;46331;49.252;8.904;2023-02-04T00:24:04;101057.50;;;7.45;100.00
60489;BME280;46331;49.252;8.904;2023-02-04T00:24:44;101055.28;;;7.63;100.00
60489;BME280;46331;49.252;8.904;2023-02-04T00:25:29;101055.72;;;7.67;100.00
60489;BME280;46331;49.252;8.904;2023-02-04T00:26:09;101052.47;;;7.65;100.00
60489;BME280;46331;49.252;8.904;2023-02-04T00:26:50;101060.28;;;7.73;100.00
60489;BME280;46331;49.252;8.904;2023-02-04T00:27:30;101067.19;;;7.74;100.00
60489;BME280;46331;49.252;8.904;2023-02-04T00:28:11;101060.47;;;7.72;100.00
60489;BME280;46331;49.252;8.904;2023-02-04T00:28:51;101062.28;;;7.71;100.00
60489;BME280;46331;49.252;8.904;2023-02-04T00:29:32;101061.84;;;7.67;100.00
60489;BME280;46331;49.252;8.904;2023-02-04T00:30:13;101069.41;;;7.56;100.00
60489;BME280;46331;49.252;8.904;2023-02-04T00:30:54;101070.31;;;7.63;100.00
60489;BME280;46331;49.252;8.904;2023-02-04T00:31:35;101072.22;;;7.69;100.00
60489;BME280;46331;49.252;8.904;2023-02-04T00:32:15;101075.50;;;7.71;100.00
60489;BME280;46331;49.252;8.904;2023-02-04T00:32:56;101073.09;;;7.76;100.00
60489;BME280;46331;49.252;8.904;2023-02-04T00:33:36;101067.81;;;7.76;100.00
60489;BME280;46331;49.252;8.904;2023-02-04T00:34:17;101082.97;;;7.67;100.00
60489;BME280;46331;49.252;8.904;2023-02-04T00:34:57;101075.69;;;7.69;100.00
60489;BME280;46331;49.252;8.904;2023-02-04T00:35:39;101081.06;;;7.61;100.00
60489;BME280;46331;49.252;8.904;2023-02-04T00:36:20;101075.50;;;7.71;100.00
60489;BME280;46331;49.252;8.904;2023-02-04T00:37:00;101082.25;;;7.74;100.00
60489;BME280;46331;49.252;8.904;2023-02-04T00:37:41;101082.13;;;7.67;100.00
60489;BME280;46331;49.252;8.904;2023-02-04T00:38:21;101070.03;;;7.73;100.00
60489;BME280;46331;49.252;8.904;2023-02-04T00:39:02;101091.16;;;7.73;100.00
60489;BME280;46331;49.252;8.904;2023-02-04T00:39:42;101079.03;;;7.78;100.00
60489;BME280;46331;49.252;8.904;2023-02-04T00:40:23;101073.09;;;7.76;100.00
60489;BME280;46331;49.252;8.904;2023-02-04T00:41:04;101085.06;;;7.72;100.00
60489;BME280;46331;49.252;8.904;2023-02-04T00:41:46;101093.59;;;7.74;100.00
60489;BME280;46331;49.252;8.904;2023-02-04T00:42:28;101080.22;;;7.76;100.00
60489;BME280;46331;49.252;8.904;2023-02-04T00:43:08;101089.59;;;7.78;100.00
60489;BME280;46331;49.252;8.904;2023-02-04T00:43:50;101087.78;;;7.79;100.00
60489;BME280;46331;49.252;8.904;2023-02-04T00:44:30;101088.69;;;7.71;100.00
60489;BME280;46331;49.252;8.904;2023-02-04T00:45:11;101088.63;;;7.64;100.00
60489;BME280;46331;49.252;8.904;2023-02-04T00:45:52;101089.50;;;7.72;100.00
60489;BME280;46331;49.252;8.904;2023-02-04T00:46:33;101084.78;;;7.67;100.00
60489;BME280;46331;49.252;8.904;2023-02-04T00:47:13;101086.25;;;7.69;100.00
60489;BME280;46331;49.252;8.904;2023-02-04T00:47:54;101086.72;;;7.58;100.00
60489;BME280;46331;49.252;8.904;2023-02-04T00:48:34;101090.53;;;7.70;100.00
60489;BME280;46331;49.252;8.904;2023-02-04T00:49:15;101081.22;;;7.75;100.00
60489;BME280;46331;49.252;8.904;2023-02-04T00:49:56;101087.16;;;7.77;100.00
60489;BME280;46331;49.252;8.904;2023-02-04T00:50:36;101093.44;;;7.76;100.00
60489;BME280;46331;49.252;8.904;2023-02-04T00:51:19;101097.72;;;7.77;100.00
60489;BME280;46331;49.252;8.904;2023-02-04T00:52:00;101085.69;;;7.74;100.00
60489;BME280;46331;49.252;8.904;2023-02-04T00:52:40;101096.25;;;7.74;100.00
60489;BME280;46331;49.252;8.904;2023-02-04T00:53:22;101093.44;;;7.61;100.00
60489;BME280;46331;49.252;8.904;2023-02-04T00:54:02;101091.69;;;7.68;100.00
60489;BME280;46331;49.252;8.904;2023-02-04T00:54:43;101092.31;;;7.70;100.00
60489;BME280;46331;49.252;8.904;2023-02-04T00:55:23;101092.13;;;7.72;100.00
60489;BME280;46331;49.252;8.904;2023-02-04T00:56:04;101097.91;;;7.75;100.00
60489;BME280;46331;49.252;8.904;2023-02-04T00:56:45;101094.97;;;7.70;100.00
60489;BME280;46331;49.252;8.904;2023-02-04T00:57:25;101093.16;;;7.70;100.00
60489;BME280;46331;49.252;8.904;2023-02-04T00:58:06;101096.00;;;7.69;100.00
60489;BME280;46331;49.252;8.904;2023-02-04T00:58:46;101095.63;;;7.72;100.00
60489;BME280;46331;49.252;8.904;2023-02-04T00:59:27;101094.63;;;7.58;100.00
60489;BME280;46331;49.252;8.904;2023-02-04T01:00:08;101095.25;;;7.60;100.00
60489;BME280;46331;49.252;8.904;2023-02-04T01:00:49;101095.16;;;7.68;100.00
60489;BME280;46331;49.252;8.904;2023-02-04T01:01:29;101101.28;;;7.69;100.00
60489;BME280;46331;49.252;8.904;2023-02-04T01:02:10;101102.88;;;7.70;100.00
60489;BME280;46331;49.252;8.904;2023-02-04T01:02:50;101104.63;;;7.78;100.00
60489;BME280;46331;49.252;8.904;2023-02-04T01:03:31;101096.13;;;7.82;100.00
60489;BME280;46331;49.252;8.904;2023-02-04T01:04:11;101106.50;;;7.84;100.00
60489;BME280;46331;49.252;8.904;2023-02-04T01:04:52;101102.44;;;7.81;100.00
60489;BME280;46331;49.252;8.904;2023-02-04T01:05:32;101106.69;;;7.82;100.00
60489;BME280;46331;49.252;8.904;2023-02-04T01:06:13;101111.97;;;7.82;100.00
60489;BME280;46331;49.252;8.904;2023-02-04T01:06:53;101102.88;;;7.85;100.00
60489;BME280;46331;49.252;8.904;2023-02-04T01:07:34;101107.19;;;7.71;100.00
60489;BME280;46331;49.252;8.904;2023-02-04T01:08:14;101110.56;;;7.65;100.00
60489;BME280;46331;49.252;8.904;2023-02-04T01:08:55;101105.34;;;7.72;100.00
60489;BME280;46331;49.252;8.904;2023-02-04T01:09:39;101105.09;;;7.81;100.00
60489;BME280;46331;49.252;8.904;2023-02-04T01:10:19;101109.19;;;7.69;100.00
60489;BME280;46331;49.252;8.904;2023-02-04T01:11:00;101106.06;;;7.65;100.00
60489;BME280;46331;49.252;8.904;2023-02-04T01:11:41;101103.00;;;7.77;100.00
60489;BME280;46331;49.252;8.904;2023-02-04T01:12:21;101102.44;;;7.81;100.00
60489;BME280;46331;49.252;8.904;2023-02-04T01:13:04;101105.09;;;7.81;100.00
60489;BME280;46331;49.252;8.904;2023-02-04T01:13:45;101104.00;;;7.76;100.00
60489;BME280;46331;49.252;8.904;2023-02-04T01:14:25;101107.00;;;7.73;100.00
60489;BME280;46331;49.252;8.904;2023-02-04T01:15:06;101100.59;;;7.82;100.00
60489;BME280;46331;49.252;8.904;2023-02-04T01:15:47;101097.78;;;7.83;100.00
60489;BME280;46331;49.252;8.904;2023-02-04T01:16:28;101108.16;;;7.85;100.00
60489;BME280;46331;49.252;8.904;2023-02-04T01:17:09;101110.44;;;7.88;100.00
60489;BME280;46331;49.252;8.904;2023-02-04T01:17:49;101105.97;;;7.88;100.00
60489;BME280;46331;49.252;8.904;2023-02-04T01:18:30;101105.44;;;7.78;100.00
60489;BME280;46331;49.252;8.904;2023-02-04T01:19:11;101106.44;;;7.77;100.00
60489;BME280;46331;49.252;8.904;2023-02-04T01:19:52;101104.25;;;7.81;100.00
60489;BME280;46331;49.252;8.904;2023-02-04T01:20:33;101104.53;;;7.86;100.00
60489;BME280;46331;49.252;8.904;2023-02-04T01:21:14;101104.06;;;7.82;100.00
60489;BME280;46331;49.252;8.904;2023-02-04T01:21:56;101100.78;;;7.80;100.00
60489;BME280;46331;49.252;8.904;2023-02-04T01:22:37;101104.16;;;7.74;100.00
60489;BME280;46331;49.252;8.904;2023-02-04T01:23:17;101100.78;;;7.80;100.00
60489;BME280;46331;49.252;8.904;2023-02-04T01:23:58;101105.69;;;7.83;100.00
60489;BME280;46331;49.252;8.904;2023-02-04T01:24:38;101105.53;;;7.70;100.00
60489;BME280;46331;49.252;8.904;2023-02-04T01:25:37;101103.25;;;7.67;100.00
60489;BME280;46331;49.252;8.904;2023-02-04T01:26:20;101102.81;;;7.78;100.00
60489;BME280;46331;49.252;8.904;2023-02-04T01:27:00;101104.72;;;7.84;100.00
60489;BME280;46331;49.252;8.904;2023-02-04T01:27:42;101112.63;;;7.84;100.00
60489;BME280;46331;49.252;8.904;2023-02-04T01:28:23;101105.53;;;7.85;100.00
60489;BME280;46331;49.252;8.904;2023-02-04T01:29:03;101111.78;;;7.84;100.00
60489;BME280;46331;49.252;8.904;2023-02-04T01:29:44;101113.25;;;7.86;100.00
60489;BME280;46331;49.252;8.904;2023-02-04T01:30:25;101114.81;;;7.81;100.00
60489;BME280;46331;49.252;8.904;2023-02-04T01:31:05;101116.81;;;7.79;100.00
60489;BME280;46331;49.252;8.904;2023-02-04T01:31:46;101116.63;;;7.80;100.00
60489;BME280;46331;49.252;8.904;2023-02-04T01:32:26;101117.25;;;7.82;100.00
60489;BME280;46331;49.252;8.904;2023-02-04T01:33:07;101119.72;;;7.84;100.00
60489;BME280;46331;49.252;8.904;2023-02-04T01:33:48;101120.56;;;7.84;100.00
60489;BME280;46331;49.252;8.904;2023-02-04T01:34:28;101116.28;;;7.83;100.00
60489;BME280;46331;49.252;8.904;2023-02-04T01:35:10;101113.94;;;7.74;100.00
60489;BME280;46331;49.252;8.904;2023-02-04T01:35:52;101112.47;;;7.71;100.00
60489;BME280;46331;49.252;8.904;2023-02-04T01:36:32;101121.28;;;7.78;100.00
60489;BME280;46331;49.252;8.904;2023-02-04T01:37:13;101124.00;;;7.85;100.00
60489;BME280;46331;49.252;8.904;2023-02-04T01:37:55;101117.91;;;7.84;100.00
60489;BME280;46331;49.252;8.904;2023-02-04T01:38:35;101121.19;;;7.86;100.00
60489;BME280;46331;49.252;8.904;2023-02-04T01:39:16;101121.81;;;7.88;100.00
60489;BME280;46331;49.252;8.904;2023-02-04T01:39:57;101114.53;;;7.91;100.00
60489;BME280;46331;49.252;8.904;2023-02-04T01:40:38;101121.19;;;7.86;100.00
60489;BME280;46331;49.252;8.904;2023-02-04T01:41:18;101116.09;;;7.85;100.00
60489;BME280;46331;49.252;8.904;2023-02-04T01:41:59;101120.56;;;7.84;100.00
60489;BME280;46331;49.252;8.904;2023-02-04T01:42:40;101124.00;;;7.85;100.00
60489;BME280;46331;49.252;8.904;2023-02-04T01:43:22;101116.91;;;7.85;100.00
60489;BME280;46331;49.252;8.904;2023-02-04T01:44:03;101118.38;;;7.73;100.00
60489;BME280;46331;49.252;8.904;2023-02-04T01:44:43;101115.53;;;7.75;100.00
60489;BME280;46331;49.252;8.904;2023-02-04T01:45:24;101119.09;;;7.67;100.00
60489;BME280;46331;49.252;8.904;2023-02-04T01:46:05;101122.09;;;7.64;100.00
60489;BME280;46331;49.252;8.904;2023-02-04T01:46:46;101117.38;;;7.74;100.00
60489;BME280;46331;49.252;8.904;2023-02-04T01:47:26;101124.50;;;7.74;100.00
60489;BME280;46331;49.252;8.904;2023-02-04T01:48:07;101118.00;;;7.76;100.00
60489;BME280;46331;49.252;8.904;2023-02-04T01:48:47;101131.69;;;7.80;100.00
60489;BME280;46331;49.252;8.904;2023-02-04T01:49:28;101123.75;;;7.80;100.00
60489;BME280;46331;49.252;8.904;2023-02-04T01:50:12;101133.09;;;7.82;100.00
60489;BME280;46331;49.252;8.904;2023-02-04T01:51:06;101129.47;;;7.83;100.00
60489;BME280;46331;49.252;8.904;2023-02-04T01:51:47;101130.47;;;7.82;100.00
60489;BME280;46331;49.252;8.904;2023-02-04T01:52:31;101128.47;;;7.84;100.00
60489;BME280;46331;49.252;8.904;2023-02-04T01:53:18;101138.88;;;7.86;100.00
60489;BME280;46331;49.252;8.904;2023-02-04T01:53:59;101127.03;;;7.82;99.57
60489;BME280;46331;49.252;8.904;2023-02-04T01:54:40;101131.84;;;7.78;99.67
60489;BME280;46331;49.252;8.904;2023-02-04T01:55:24;101134.88;;;7.75;98.82
60489;BME280;46331;49.252;8.904;2023-02-04T01:56:17;101135.50;;;7.77;98.88
60489;BME280;46331;49.252;8.904;2023-02-04T01:56:59;101133.47;;;7.79;98.50
60489;BME280;46331;49.252;8.904;2023-02-04T01:57:40;101135.00;;;7.88;97.90
60489;BME280;46331;49.252;8.904;2023-02-04T01:58:21;101133.22;;;7.89;96.83
60489;BME280;46331;49.252;8.904;2023-02-04T01:59:13;101128.19;;;7.94;97.64
60489;BME280;46331;49.252;8.904;2023-02-04T01:59:55;101135.47;;;7.92;97.49
60489;BME280;46331;49.252;8.904;2023-02-04T02:00:35;101129.59;;;7.75;96.70
60489;BME280;46331;49.252;8.904;2023-02-04T02:03:20;101133.75;;;7.84;96.41
60489;BME280;46331;49.252;8.904;2023-02-04T02:04:01;101131.84;;;7.78;96.22
60489;BME280;46331;49.252;8.904;2023-02-04T02:04:42;101137.59;;;7.82;96.31
60489;BME280;46331;49.252;8.904;2023-02-04T02:05:42;101135.19;;;7.87;96.55
60489;BME280;46331;49.252;8.904;2023-02-04T02:06:23;101142.31;;;7.86;96.20
60489;BME280;46331;49.252;8.904;2023-02-04T02:07:05;101136.22;;;7.86;96.44
60489;BME280;46331;49.252;8.904;2023-02-04T02:07:49;101139.31;;;7.90;96.89
60489;BME280;46331;49.252;8.904;2023-02-04T02:08:30;101142.78;;;7.90;97.30
60489;BME280;46331;49.252;8.904;2023-02-04T02:09:10;101140.16;;;7.90;97.06
60489;BME280;46331;49.252;8.904;2023-02-04T02:09:51;101139.31;;;7.90;97.06
60489;BME280;46331;49.252;8.904;2023-02-04T02:10:32;101140.16;;;7.90;97.03
60489;BME280;46331;49.252;8.904;2023-02-04T02:11:14;101134.84;;;7.90;97.15
60489;BME280;46331;49.252;8.904;2023-02-04T02:11:55;101137.66;;;7.88;97.00
60489;BME280;46331;49.252;8.904;2023-02-04T02:12:36;101138.50;;;7.89;96.68
60489;BME280;46331;49.252;8.904;2023-02-04T02:13:18;101137.75;;;7.80;96.06
60489;BME280;46331;49.252;8.904;2023-02-04T02:13:59;101138.75;;;7.79;95.81
60489;BME280;46331;49.252;8.904;2023-02-04T02:14:40;101139.31;;;7.75;96.16
60489;BME280;46331;49.252;8.904;2023-02-04T02:15:21;101137.13;;;7.78;96.02
60489;BME280;46331;49.252;8.904;2023-02-04T02:16:01;101136.41;;;7.84;96.66
60489;BME280;46331;49.252;8.904;2023-02-04T02:16:42;101139.41;;;7.81;95.36
60489;BME280;46331;49.252;8.904;2023-02-04T02:17:22;101143.50;;;7.84;95.49
60489;BME280;46331;49.252;8.904;2023-02-04T02:18:04;101142.50;;;7.85;95.16
60489;BME280;46331;49.252;8.904;2023-02-04T02:18:44;101154.16;;;7.91;95.67
60489;BME280;46331;49.252;8.904;2023-02-04T02:19:28;101153.78;;;7.94;95.82
60489;BME280;46331;49.252;8.904;2023-02-04T02:20:14;101159.06;;;7.94;95.83
60489;BME280;46331;49.252;8.904;2023-02-04T02:20:56;101149.31;;;7.94;95.98
60489;BME280;46331;49.252;8.904;2023-02-04T02:21:44;101156.44;;;7.94;95.88
60489;BME280;46331;49.252;8.904;2023-02-04T02:22:35;101156.69;;;7.99;95.78
60489;BME280;46331;49.252;8.904;2023-02-04T02:23:41;101153.25;;;7.98;94.73
60489;BME280;46331;49.252;8.904;2023-02-04T02:24:34;101156.88;;;7.97;94.52
60489;BME280;46331;49.252;8.904;2023-02-04T02:25:14;101153.25;;;7.98;95.17
60489;BME280;46331;49.252;8.904;2023-02-04T02:25:56;101143.41;;;7.92;94.13
60489;BME280;46331;49.252;8.904;2023-02-04T02:26:37;101137.22;;;7.70;93.30
60489;BME280;46331;49.252;8.904;2023-02-04T02:27:18;101142.88;;;7.82;93.10
60489;BME280;46331;49.252;8.904;2023-02-04T02:27:59;101135.50;;;7.77;91.91
60489;BME280;46331;49.252;8.904;2023-02-04T02:28:41;101132.22;;;7.75;92.22
60489;BME280;46331;49.252;8.904;2023-02-04T02:29:22;101127.94;;;7.59;93.12
60489;BME280;46331;49.252;8.904;2023-02-04T02:30:03;101128.31;;;7.71;94.06
60489;BME280;46331;49.252;8.904;2023-02-04T02:30:45;101124.31;;;7.60;94.10
60489;BME280;46331;49.252;8.904;2023-02-04T02:31:28;101126.66;;;7.70;93.83
60489;BME280;46331;49.252;8.904;2023-02-04T02:32:10;101134.13;;;7.81;93.23
60489;BME280;46331;49.252;8.904;2023-02-04T02:32:51;101133.47;;;7.79;92.39
60489;BME280;46331;49.252;8.904;2023-02-04T02:33:33;101137.22;;;7.85;92.72
60489;BME280;46331;49.252;8.904;2023-02-04T02:34:14;101134.22;;;7.88;92.54
60489;BME280;46331;49.252;8.904;2023-02-04T02:34:55;101140.94;;;7.91;91.94
60489;BME280;46331;49.252;8.904;2023-02-04T02:35:35;101137.84;;;7.87;92.47
60489;BME280;46331;49.252;8.904;2023-02-04T02:36:16;101138.50;;;7.74;91.75
60489;BME280;46331;49.252;8.904;2023-02-04T02:36:58;101129.78;;;7.74;91.67
60489;BME280;46331;49.252;8.904;2023-02-04T02:37:39;101135.22;;;7.72;91.49
60489;BME280;46331;49.252;8.904;2023-02-04T02:38:19;101135.50;;;7.77;91.50
60489;BME280;46331;49.252;8.904;2023-02-04T02:39:00;101136.22;;;7.71;90.99
60489;BME280;46331;49.252;8.904;2023-02-04T02:39:43;101137.50;;;7.75;91.52
60489;BME280;46331;49.252;8.904;2023-02-04T02:40:26;101138.94;;;7.78;90.68
60489;BME280;46331;49.252;8.904;2023-02-04T02:41:06;101136.78;;;7.81;90.95
60489;BME280;46331;49.252;8.904;2023-02-04T02:41:49;101137.75;;;7.80;89.63
60489;BME280;46331;49.252;8.904;2023-02-04T02:42:30;101144.34;;;7.84;89.37
60489;BME280;46331;49.252;8.904;2023-02-04T02:43:16;101142.31;;;7.86;89.71
60489;BME280;46331;49.252;8.904;2023-02-04T02:43:57;101144.97;;;7.86;89.43
60489;BME280;46331;49.252;8.904;2023-02-04T02:44:38;101141.59;;;7.78;88.84
60489;BME280;46331;49.252;8.904;2023-02-04T02:45:28;101142.13;;;7.88;89.71
60489;BME280;46331;49.252;8.904;2023-02-04T02:46:09;101144.78;;;7.88;89.13
60489;BME280;46331;49.252;8.904;2023-02-04T02:46:50;101148.22;;;7.88;88.96
60489;BME280;46331;49.252;8.904;2023-02-04T02:47:31;101142.94;;;7.88;88.25
60489;BME280;46331;49.252;8.904;2023-02-04T02:48:12;101135.00;;;7.88;88.08
60489;BME280;46331;49.252;8.904;2023-02-04T02:48:53;101141.03;;;7.82;86.86
60489;BME280;46331;49.252;8.904;2023-02-04T02:49:34;101134.22;;;7.73;86.76
60489;BME280;46331;49.252;8.904;2023-02-04T02:50:20;101130.22;;;7.77;87.15
60489;BME280;46331;49.252;8.904;2023-02-04T02:51:02;101136.66;;;7.75;86.90
60489;BME280;46331;49.252;8.904;2023-02-04T02:51:44;101135.84;;;7.74;86.30
60489;BME280;46331;49.252;8.904;2023-02-04T02:52:25;101137.41;;;7.83;85.33
60489;BME280;46331;49.252;8.904;2023-02-04T02:53:13;101149.63;;;7.84;84.52
60489;BME280;46331;49.252;8.904;2023-02-04T02:53:55;101152.25;;;7.84;84.34
60489;BME280;46331;49.252;8.904;2023-02-04T02:54:37;101144.78;;;7.88;84.44
60489;BME280;46331;49.252;8.904;2023-02-04T02:55:22;101143.78;;;7.89;84.31
60489;BME280;46331;49.252;8.904;2023-02-04T02:56:03;101144.78;;;7.88;84.38
60489;BME280;46331;49.252;8.904;2023-02-04T02:56:45;101145.75;;;7.87;84.29
60489;BME280;46331;49.252;8.904;2023-02-04T02:57:26;101148.41;;;7.87;83.61
60489;BME280;46331;49.252;8.904;2023-02-04T02:58:28;101146.22;;;7.91;83.91
60489;BME280;46331;49.252;8.904;2023-02-04T02:59:13;101150.06;;;7.88;83.34
60489;BME280;46331;49.252;8.904;2023-02-04T02:59:53;101145.13;;;7.85;82.69
60489;BME280;46331;49.252;8.904;2023-02-04T03:00:35;101145.13;;;7.85;83.38
60489;BME280;46331;49.252;8.904;2023-02-04T03:01:15;101145.31;;;7.83;82.99
60489;BME280;46331;49.252;8.904;2023-02-04T03:02:00;101150.59;;;7.83;83.18
60489;BME280;46331;49.252;8.904;2023-02-04T03:02:58;101145.13;;;7.85;83.39
60489;BME280;46331;49.252;8.904;2023-02-04T03:03:45;101147.69;;;7.78;83.54
60489;BME280;46331;49.252;8.904;2023-02-04T03:04:29;101151.88;;;7.73;82.90
60489;BME280;46331;49.252;8.904;2023-02-04T03:05:11;101148.63;;;7.70;81.10
60489;BME280;46331;49.252;8.904;2023-02-04T03:05:54;101151.34;;;7.77;80.86
60489;BME280;46331;49.252;8.904;2023-02-04T03:06:37;101143.84;;;7.81;81.43
60489;BME280;46331;49.252;8.904;2023-02-04T03:07:19;101143.22;;;7.79;80.90
60489;BME280;46331;49.252;8.904;2023-02-04T03:08:00;101145.50;;;7.82;81.32
60489;BME280;46331;49.252;8.904;2023-02-04T03:08:42;101142.25;;;7.80;80.63
60489;BME280;46331;49.252;8.904;2023-02-04T03:09:24;101143.78;;;7.74;80.14
60489;BME280;46331;49.252;8.904;2023-02-04T03:10:06;101138.78;;;7.64;80.02
60489;BME280;46331;49.252;8.904;2023-02-04T03:10:47;101138.97;;;7.48;79.48
60489;BME280;46331;49.252;8.904;2023-02-04T03:11:28;101138.06;;;7.70;79.62
60489;BME280;46331;49.252;8.904;2023-02-04T03:12:09;101142.78;;;7.75;79.81
60489;BME280;46331;49.252;8.904;2023-02-04T03:12:50;101144.88;;;7.80;78.97
60489;BME280;46331;49.252;8.904;2023-02-04T03:13:31;101136.78;;;7.81;79.17
60489;BME280;46331;49.252;8.904;2023-02-04T03:14:13;101137.50;;;7.75;79.21
60489;BME280;46331;49.252;8.904;2023-02-04T03:14:54;101138.06;;;7.70;79.99
60489;BME280;46331;49.252;8.904;2023-02-04T03:15:35;101134.94;;;7.67;79.07
60489;BME280;46331;49.252;8.904;2023-02-04T03:16:15;101136.59;;;7.68;78.06
60489;BME280;46331;49.252;8.904;2023-02-04T03:16:56;101139.69;;;7.72;78.25
60489;BME280;46331;49.252;8.904;2023-02-04T03:17:38;101139.06;;;7.69;77.91
60489;BME280;46331;49.252;8.904;2023-02-04T03:18:20;101148.81;;;7.69;78.14
60489;BME280;46331;49.252;8.904;2023-02-04T03:19:01;101138.41;;;7.67;78.24
60489;BME280;46331;49.252;8.904;2023-02-04T03:19:43;101144.06;;;7.64;78.00
60489;BME280;46331;49.252;8.904;2023-02-04T03:20:24;101150.41;;;7.70;78.58
60489;BME280;46331;49.252;8.904;2023-02-04T03:21:06;101148.63;;;7.70;78.21
60489;BME280;46331;49.252;8.904;2023-02-04T03:21:47;101150.59;;;7.68;77.03
60489;BME280;46331;49.252;8.904;2023-02-04T03:22:27;101157.34;;;7.71;77.03
60489;BME280;46331;49.252;8.904;2023-02-04T03:23:08;101157.34;;;7.71;77.62
60489;BME280;46331;49.252;8.904;2023-02-04T03:23:49;101159.38;;;7.69;77.73
60489;BME280;46331;49.252;8.904;2023-02-04T03:24:30;101160.97;;;7.70;78.20
60489;BME280;46331;49.252;8.904;2023-02-04T03:25:11;101160.97;;;7.70;78.21
60489;BME280;46331;49.252;8.904;2023-02-04T03:25:52;101157.34;;;7.71;77.95
60489;BME280;46331;49.252;8.904;2023-02-04T03:26:33;101155.34;;;7.73;77.79
60489;BME280;46331;49.252;8.904;2023-02-04T03:27:14;101158.53;;;7.68;77.00
60489;BME280;46331;49.252;8.904;2023-02-04T03:27:56;101163.25;;;7.73;77.45
60489;BME280;46331;49.252;8.904;2023-02-04T03:28:41;101160.25;;;7.76;77.62
60489;BME280;46331;49.252;8.904;2023-02-04T03:29:23;101168.09;;;7.69;76.69
60489;BME280;46331;49.252;8.904;2023-02-04T03:30:03;101161.53;;;7.65;76.69
60489;BME280;46331;49.252;8.904;2023-02-04T03:30:44;101172.56;;;7.69;76.88
60489;BME280;46331;49.252;8.904;2023-02-04T03:31:34;101174.66;;;7.59;77.19
60489;BME280;46331;49.252;8.904;2023-02-04T03:32:15;101175.28;;;7.61;78.02
60489;BME280;46331;49.252;8.904;2023-02-04T03:32:56;101169.94;;;7.69;76.51
60489;BME280;46331;49.252;8.904;2023-02-04T03:33:37;101171.53;;;7.70;76.32
60489;BME280;46331;49.252;8.904;2023-02-04T03:34:17;101168.91;;;7.70;75.78
60489;BME280;46331;49.252;8.904;2023-02-04T03:34:58;101168.91;;;7.70;76.26
60489;BME280;46331;49.252;8.904;2023-02-04T03:35:38;101171.19;;;7.73;76.23
60489;BME280;46331;49.252;8.904;2023-02-04T03:36:19;101179.66;;;7.68;75.91
60489;BME280;46331;49.252;8.904;2023-02-04T03:36:59;101176.66;;;7.72;75.71
60489;BME280;46331;49.252;8.904;2023-02-04T03:37:40;101170.56;;;7.71;75.71
60489;BME280;46331;49.252;8.904;2023-02-04T03:38:20;101181.47;;;7.68;75.63
60489;BME280;46331;49.252;8.904;2023-02-04T03:39:02;101177.19;;;7.67;75.50
60489;BME280;46331;49.252;8.904;2023-02-04T03:39:42;101177.81;;;7.54;75.68
60489;BME280;46331;49.252;8.904;2023-02-04T03:40:23;101181.63;;;7.51;75.16
60489;BME280;46331;49.252;8.904;2023-02-04T03:41:03;101174.81;;;7.57;75.56
60489;BME280;46331;49.252;8.904;2023-02-04T03:41:44;101177.81;;;7.54;76.05